aviador You're here:

KLDJ Decoded Metar

in _UNIDENTIFIED
Report Time2017-06-25 13:55:00
UTC Time2017-06-25 13:50:52
Flight Rules vfr VFR
WindCalm
Visibility9999 m
Phenomena:N/A
Clouds:Scattered 110 Hf
Expected CloudBase > 4,400 ft AGL from Temp-Dew spread
CeilingNone
Temp25°C (ISA +10)
Dew Point14°C (51% RH)
QNH1016 hPa
Density Alt1,299 ft
Elevation23 ft
Report Wrong Elevation
Raw Report
KLDJ 251355Z AUTO 00000KT 10SM SCT110 25/14 A3000 RMK AO2
T02500140=

Extra information for KLDJ:More info

Metar Taf Metar & Taf Last 4 Metars F.Rules Stats Wind Profile Meteogram Temp Stats Metar ALERT Operation Metar Decoded Social comments